Time;durP1;ratioP1;P1;durP2;ratioP2;P2;SDS_P1;SDS_P2;PMS_P1;PMS_P2;Temp;Humidity;BMP_temperature;BMP_pressure;BME280_temperature;BME280_humidity;BME280_pressure;Samples;Min_cycle;Max_cycle;Signal;HPM_P1;HPM_P2
2022/04/26 03:37:47;;;;;;;2.00;1.85;;;;;;;10.75;68.53;100832.31;5170862;28;20038;-82
2022/04/26 03:40:21;;;;;;;4.82;3.45;;;;;;;10.59;71.67;100833.59;5116368;28;20073;-81
2022/04/26 03:42:52;;;;;;;5.00;3.15;;;;;;;10.54;69.84;100833.72;5117289;28;20026;-81
2022/04/26 03:45:23;;;;;;;3.08;2.20;;;;;;;10.63;68.63;100824.78;5120963;28;20084;-81
2022/04/26 03:47:53;;;;;;;3.17;2.83;;;;;;;10.76;69.30;100827.94;5152844;28;20042;-81
2022/04/26 03:50:24;;;;;;;3.67;3.08;;;;;;;10.64;68.08;100829.97;5133716;28;20459;-81
2022/04/26 03:53:00;;;;;;;3.92;3.47;;;;;;;10.63;68.03;100833.50;5138317;28;20053;-82
2022/04/26 03:55:35;;;;;;;4.85;4.35;;;;;;;10.54;69.53;100834.59;5122658;28;20031;-82
2022/04/26 03:58:05;;;;;;;2.22;2.13;;;;;;;10.51;70.21;100831.19;5115798;28;20556;-80
2022/04/26 04:00:40;;;;;;;5.65;3.08;;;;;;;10.59;69.41;100823.13;5110181;28;20030;-83
2022/04/26 04:03:11;;;;;;;2.20;2.00;;;;;;;10.53;71.66;100830.25;5131384;28;20046;-82
2022/04/26 04:05:42;;;;;;;3.22;2.97;;;;;;;10.59;71.67;100831.00;5131895;28;20038;-82
2022/04/26 04:08:12;;;;;;;2.97;2.78;;;;;;;10.25;74.26;100827.41;5146900;28;20034;-82
2022/04/26 04:10:43;;;;;;;2.92;2.40;;;;;;;10.45;71.17;100824.34;5114702;28;20027;-82
2022/04/26 04:13:13;;;;;;;2.90;2.55;;;;;;;10.42;71.12;100829.66;5112898;28;20043;-83
2022/04/26 04:15:46;;;;;;;7.38;3.25;;;;;;;10.47;69.38;100832.16;5136717;28;20594;-83
2022/04/26 04:21:06;;;;;;;6.80;3.00;;;;;;;10.44;71.27;100837.50;5150938;28;20507;-82
2022/04/26 04:23:38;;;;;;;4.68;3.10;;;;;;;10.47;71.36;100840.91;5118326;28;20042;-82
2022/04/26 04:26:08;;;;;;;6.07;1.90;;;;;;;10.21;74.41;100842.38;5133886;28;20138;-81
2022/04/26 04:28:39;;;;;;;3.72;2.90;;;;;;;10.26;74.67;100844.00;5129334;28;20038;-81
2022/04/26 04:31:10;;;;;;;2.55;2.35;;;;;;;10.23;73.91;100850.19;5137074;28;20023;-82
2022/04/26 04:33:40;;;;;;;3.30;3.00;;;;;;;10.45;71.24;100854.97;5120399;28;20117;-82
2022/04/26 04:36:11;;;;;;;2.67;2.47;;;;;;;10.34;71.72;100853.44;5140911;28;20026;-82
2022/04/26 04:38:42;;;;;;;3.53;3.22;;;;;;;10.07;73.66;100858.41;5126884;28;20042;-82
2022/04/26 04:41:12;;;;;;;3.03;2.80;;;;;;;10.29;71.46;100865.75;5117491;28;20042;-82
2022/04/26 04:43:42;;;;;;;4.10;2.78;;;;;;;10.33;70.93;100866.59;5114322;28;20042;-82
2022/04/26 04:46:13;;;;;;;2.15;1.95;;;;;;;10.33;71.20;100871.84;5133150;28;20398;-82
2022/04/26 04:48:44;;;;;;;2.35;2.17;;;;;;;10.17;72.70;100873.94;5113857;28;20038;-82
2022/04/26 04:51:14;;;;;;;1.33;1.27;;;;;;;9.93;72.45;100882.31;5114588;28;20046;-82
2022/04/26 04:53:45;;;;;;;1.85;1.75;;;;;;;10.30;70.75;100885.84;5118695;28;20066;-82
2022/04/26 04:56:15;;;;;;;1.23;1.23;;;;;;;10.19;71.63;100885.25;5126225;28;20375;-82
2022/04/26 04:58:46;;;;;;;2.17;1.27;;;;;;;9.63;74.67;100880.34;5117236;28;20046;-82
2022/04/26 05:01:17;;;;;;;0.95;0.95;;;;;;;9.63;74.41;100891.66;5116099;28;20034;-82
2022/04/26 05:03:47;;;;;;;0.70;0.70;;;;;;;9.77;73.21;100894.88;5131812;28;20049;-82
2022/04/26 05:06:18;;;;;;;1.30;1.25;;;;;;;9.56;74.01;100890.06;5131389;28;20026;-82
2022/04/26 05:08:49;;;;;;;0.88;0.82;;;;;;;9.80;71.99;100893.06;5131325;28;20100;-82
2022/04/26 05:11:23;;;;;;;3.20;1.38;;;;;;;9.84;71.83;100900.84;5115777;28;20103;-83
2022/04/26 05:13:53;;;;;;;1.10;1.10;;;;;;;9.76;72.78;100905.38;5141780;28;20140;-82
2022/04/26 05:16:24;;;;;;;1.08;1.08;;;;;;;9.75;72.31;100903.69;5144906;28;20046;-82
2022/04/26 05:18:57;;;;;;;1.10;1.10;;;;;;;9.89;71.42;100909.50;5139976;28;20383;-83
2022/04/26 05:21:27;;;;;;;1.98;1.75;;;;;;;9.69;72.35;100914.28;5114400;28;20039;-82
2022/04/26 05:26:47;;;;;;;0.75;0.75;;;;;;;9.52;73.35;100914.63;5147133;28;20046;-82
2022/04/26 05:29:17;;;;;;;0.95;0.95;;;;;;;9.74;70.77;100909.81;5140853;28;20065;-81
2022/04/26 05:31:48;;;;;;;1.45;1.35;;;;;;;9.72;69.91;100911.59;5151181;28;20074;-81
2022/04/26 05:34:19;;;;;;;1.20;1.15;;;;;;;9.77;70.97;100905.38;5142136;28;20097;-83
2022/04/26 05:36:49;;;;;;;0.80;0.80;;;;;;;9.48;73.04;100923.41;5114072;28;20026;-82
2022/04/26 05:39:19;;;;;;;1.23;1.13;;;;;;;9.57;72.42;100918.00;5119823;28;20461;-82
2022/04/26 05:41:50;;;;;;;0.50;0.50;;;;;;;9.57;72.67;100904.91;5131762;28;20122;-80
2022/04/26 05:44:20;;;;;;;1.25;1.15;;;;;;;9.40;73.47;100900.84;5116152;28;20303;-80
2022/04/26 05:46:53;;;;;;;0.55;0.55;;;;;;;9.51;71.71;100915.50;5144317;28;20222;-81
2022/04/26 05:49:24;;;;;;;0.77;0.70;;;;;;;9.55;71.97;100917.16;5114720;28;20634;-81
2022/04/26 05:51:54;;;;;;;0.65;0.65;;;;;;;9.50;71.96;100925.13;5133395;28;20129;-82
2022/04/26 05:54:25;;;;;;;0.70;0.70;;;;;;;9.64;71.70;100929.22;5134578;28;20042;-82
2022/04/26 05:56:56;;;;;;;1.70;1.42;;;;;;;9.70;70.52;100924.75;5129510;28;20042;-82
2022/04/26 05:59:26;;;;;;;0.70;0.70;;;;;;;9.48;71.69;100933.88;5142658;28;20042;-82
2022/04/26 06:01:57;;;;;;;0.52;0.52;;;;;;;9.65;70.47;100937.06;5113441;28;20037;-82
2022/04/26 06:04:27;;;;;;;0.85;0.85;;;;;;;9.69;70.08;100935.22;5127904;28;20452;-82
2022/04/26 06:06:58;;;;;;;0.77;0.77;;;;;;;9.59;70.80;100939.78;5123697;28;20035;-82
2022/04/26 06:09:28;;;;;;;0.60;0.60;;;;;;;9.45;71.21;100946.19;5126329;28;20042;-82
2022/04/26 06:11:59;;;;;;;1.48;1.38;;;;;;;9.48;70.92;100939.13;5142616;28;20049;-82
2022/04/26 06:14:29;;;;;;;1.92;1.83;;;;;;;9.56;71.35;100940.72;5112120;28;20134;-81
2022/04/26 06:17:00;;;;;;;1.88;1.27;;;;;;;9.57;70.45;100941.56;5128382;28;20248;-81
2022/04/26 06:19:33;;;;;;;1.05;1.05;;;;;;;9.53;71.10;100942.53;5107857;28;20046;-81
2022/04/26 06:22:07;;;;;;;;;;;;;;;9.37;71.71;100948.06;5122728;28;20061;-81
2022/04/26 06:24:38;;;;;;;2.95;1.85;;;;;;;9.67;70.48;100950.13;5128475;28;19921;-81
2022/04/26 06:27:09;;;;;;;1.88;1.77;;;;;;;9.48;72.13;100946.97;5131886;28;20034;-80
2022/04/26 06:29:39;;;;;;;0.95;0.93;;;;;;;9.66;69.88;100954.50;5131100;28;20042;-81
2022/04/26 06:32:10;;;;;;;1.02;1.02;;;;;;;9.60;70.79;100955.47;5121267;28;20041;-81
2022/04/26 06:34:40;;;;;;;1.23;1.13;;;;;;;9.55;72.07;100956.44;5117139;28;20046;-81
2022/04/26 06:37:13;;;;;;;1.65;1.13;;;;;;;9.65;70.45;100959.78;5167149;28;20061;-81
2022/04/26 06:39:53;;;;;;;1.20;1.17;;;;;;;9.55;71.09;100967.81;5145563;28;20137;-80
2022/04/26 06:42:23;;;;;;;0.95;0.95;;;;;;;9.64;71.37;100955.44;5118862;28;20026;-81
2022/04/26 06:44:54;;;;;;;1.73;1.25;;;;;;;9.58;71.93;100964.25;5144979;28;20205;-81
2022/04/26 06:47:24;;;;;;;0.75;0.75;;;;;;;9.60;71.57;100959.88;5129624;28;20034;-81
2022/04/26 06:49:55;;;;;;;0.68;0.68;;;;;;;9.46;72.50;100965.34;5110392;28;20494;-81
2022/04/26 06:52:25;;;;;;;2.00;1.88;;;;;;;9.73;70.64;100963.97;5113105;28;20085;-81
2022/04/26 06:54:56;;;;;;;1.70;1.60;;;;;;;9.71;71.05;100967.50;5134518;28;20070;-81
2022/04/26 06:57:27;;;;;;;1.08;1.08;;;;;;;9.64;71.97;100971.16;5130558;28;20022;-81
2022/04/26 07:00:00;;;;;;;1.17;1.15;;;;;;;9.68;70.43;100976.31;5130346;28;20788;-81
2022/04/26 07:02:33;;;;;;;19.42;2.58;;;;;;;9.72;71.92;100977.94;5120435;28;20047;-81
2022/04/26 07:05:04;;;;;;;0.80;0.80;;;;;;;9.75;71.34;100984.91;5135162;28;20042;-81
2022/04/26 07:07:35;;;;;;;0.93;0.93;;;;;;;9.60;71.77;100986.91;5166316;28;20034;-81
2022/04/26 07:10:14;;;;;;;1.33;1.23;;;;;;;9.88;69.91;100996.00;5137745;28;20049;-81
2022/04/26 07:12:45;;;;;;;1.60;1.50;;;;;;;9.77;71.83;100998.81;5123322;28;20026;-81
2022/04/26 07:15:15;;;;;;;0.50;0.50;;;;;;;9.71;70.97;100989.31;5135684;28;20386;-81
2022/04/26 07:17:46;;;;;;;5.57;3.13;;;;;;;9.85;70.53;100988.22;5130588;28;20045;-81
2022/04/26 07:20:16;;;;;;;1.75;1.65;;;;;;;9.76;70.88;100978.75;5124831;28;20065;-81
2022/04/26 07:22:47;;;;;;;1.67;1.55;;;;;;;9.45;72.52;100977.59;5117160;28;20030;-80
2022/04/26 07:25:18;;;;;;;1.67;1.58;;;;;;;9.55;71.79;100978.28;5115317;28;20038;-81
2022/04/26 07:27:49;;;;;;;2.58;1.58;;;;;;;9.52;72.55;100988.81;5152674;28;20244;-81
2022/04/26 07:30:19;;;;;;;1.08;1.08;;;;;;;9.70;70.90;100997.22;5128312;28;20030;-80
2022/04/26 07:35:39;;;;;;;3.38;3.10;;;;;;;9.79;70.66;101006.69;5126628;28;20129;-80
2022/04/26 07:38:10;;;;;;;1.40;1.35;;;;;;;9.86;70.40;101016.16;5126539;28;20462;-80
2022/04/26 07:40:41;;;;;;;2.33;2.13;;;;;;;9.83;70.93;101019.69;5109146;28;20030;-80
2022/04/26 07:43:13;;;;;;;5.85;3.00;;;;;;;9.82;71.21;101022.31;5164008;28;20030;-81
2022/04/26 07:45:45;;;;;;;3.42;3.13;;;;;;;9.69;72.52;101022.56;5111852;28;20080;-81
2022/04/26 07:48:17;;;;;;;2.55;2.35;;;;;;;9.75;71.55;101025.06;5126805;28;20586;-80
2022/04/26 07:50:49;;;;;;;8.52;2.50;;;;;;;9.83;70.67;101024.94;5125455;28;20316;-81
2022/04/26 07:53:20;;;;;;;3.53;2.47;;;;;;;9.74;72.43;101028.59;5140685;28;20398;-80
2022/04/26 07:55:51;;;;;;;3.20;2.95;;;;;;;9.75;72.34;101032.94;5126907;28;20037;-80
2022/04/26 07:58:21;;;;;;;2.00;1.90;;;;;;;9.96;70.78;101041.25;5146404;28;20051;-80
2022/04/26 08:00:52;;;;;;;3.08;2.83;;;;;;;9.70;72.49;101039.16;5111535;28;20379;-80
2022/04/26 08:03:23;;;;;;;3.60;3.22;;;;;;;9.68;72.08;101031.31;5111405;28;20489;-80
2022/04/26 08:05:53;;;;;;;2.33;2.13;;;;;;;9.80;71.27;101032.84;5103354;28;20027;-79
2022/04/26 08:08:24;;;;;;;5.95;3.75;;;;;;;9.68;72.64;101033.94;5126248;28;20053;-80
2022/04/26 08:10:55;;;;;;;3.47;3.20;;;;;;;9.66;72.48;101042.72;5119370;28;20034;-80
2022/04/26 08:13:25;;;;;;;2.72;2.53;;;;;;;9.76;71.47;101044.25;5128315;28;20034;-80
2022/04/26 08:15:56;;;;;;;1.73;1.63;;;;;;;9.83;71.53;101050.25;5146809;28;20038;-80
2022/04/26 08:18:27;;;;;;;9.48;6.75;;;;;;;9.73;72.25;101057.44;5129736;28;20114;-79
2022/04/26 08:20:58;;;;;;;7.07;2.78;;;;;;;10.01;70.15;101060.41;5132683;28;20405;-80
2022/04/26 08:23:28;;;;;;;5.38;3.20;;;;;;;10.11;70.17;101065.47;5117558;28;20342;-81
2022/04/26 08:28:50;;;;;;;3.95;3.65;;;;;;;9.85;71.37;101074.69;5148275;28;20113;-78
2022/04/26 08:31:20;;;;;;;3.80;3.50;;;;;;;9.92;71.21;101069.28;5119111;28;20068;-79
2022/04/26 08:33:51;;;;;;;11.02;4.22;;;;;;;9.84;72.27;101067.72;5113970;28;20062;-80
2022/04/26 08:36:22;;;;;;;5.20;3.72;;;;;;;9.90;71.75;101062.34;5120533;28;20096;-80
2022/04/26 08:38:53;;;;;;;3.20;2.90;;;;;;;9.89;71.04;101065.88;5145459;28;20121;-79
2022/04/26 08:41:24;;;;;;;5.63;5.15;;;;;;;9.74;73.06;101062.66;5128855;28;20425;-79
2022/04/26 08:43:54;;;;;;;3.13;2.90;;;;;;;9.79;73.74;101059.94;5144893;28;20100;-80
2022/04/26 08:50:59;;;;;;;7.00;4.05;;;;;;;10.04;70.92;101060.31;5147058;28;20096;-79
2022/04/26 08:52:10;;;;;;;4.15;3.15;;;;;;;10.30;70.67;101065.97;5136452;28;20034;-80
2022/04/26 08:54:41;;;;;;;2.47;2.28;;;;;;;10.24;71.52;101072.19;5131408;28;20042;-79
2022/04/26 08:57:13;;;;;;;1.40;1.33;;;;;;;10.34;70.93;101081.63;5114555;28;20068;-79
2022/04/26 08:59:50;;;;;;;1.98;1.83;;;;;;;10.37;70.59;101081.56;5146474;28;20648;-79
2022/04/26 09:02:24;;;;;;;2.13;2.03;;;;;;;10.30;70.78;101082.56;5131115;28;20049;-80
2022/04/26 09:05:08;;;;;;;2.55;2.35;;;;;;;10.20;72.32;101087.13;5158179;28;20039;-79
2022/04/26 09:07:39;;;;;;;3.15;1.92;;;;;;;10.21;72.67;101093.22;5149103;28;20413;-79
2022/04/26 09:10:16;;;;;;;3.08;2.78;;;;;;;10.33;72.05;101093.00;5111771;28;20042;-80
2022/04/26 09:13:04;;;;;;;3.28;3.00;;;;;;;10.50;71.13;101104.94;5146260;28;20117;-80
2022/04/26 09:15:43;;;;;;;3.13;2.85;;;;;;;10.60;70.66;101105.59;5130489;28;20544;-79
2022/04/26 09:18:26;;;;;;;2.05;1.92;;;;;;;10.41;71.67;101110.38;5112401;28;20051;-78
2022/04/26 09:21:18;;;;;;;1.60;1.50;;;;;;;10.60;70.46;101111.72;5117531;28;20026;-80
2022/04/26 09:23:49;;;;;;;2.22;1.83;;;;;;;10.77;70.26;101123.63;5131610;28;20069;-79
2022/04/26 09:26:19;;;;;;;1.98;1.65;;;;;;;10.53;71.43;101118.84;5148862;28;20010;-79
2022/04/26 09:28:51;;;;;;;1.98;1.83;;;;;;;10.61;71.00;101128.31;5148668;28;20073;-78
2022/04/26 09:31:30;;;;;;;0.90;0.90;;;;;;;10.52;71.42;101124.16;5120444;28;20284;-79
2022/04/26 09:34:05;;;;;;;3.05;2.85;;;;;;;10.71;70.82;101130.72;5127233;28;20054;-79
2022/04/26 09:36:45;;;;;;;2.10;1.95;;;;;;;10.74;70.12;101123.69;5121274;28;20042;-79
2022/04/26 09:39:23;;;;;;;2.28;2.17;;;;;;;10.74;70.41;101127.19;5111792;28;20038;-79
2022/04/26 09:41:54;;;;;;;2.50;2.20;;;;;;;10.80;71.39;101137.56;5127423;28;20041;-79
2022/04/26 09:44:33;;;;;;;2.45;2.35;;;;;;;10.79;70.72;101140.19;5142118;28;20038;-79
2022/04/26 09:47:03;;;;;;;1.92;1.83;;;;;;;10.92;70.69;101139.03;5111513;28;20030;-81
2022/04/26 09:49:38;;;;;;;1.73;1.63;;;;;;;10.92;70.67;101146.91;5160782;28;20038;-80
2022/04/26 09:52:13;;;;;;;2.83;2.38;;;;;;;10.94;70.46;101142.50;5114351;28;20034;-80
2022/04/26 09:54:45;;;;;;;2.85;1.98;;;;;;;10.99;70.23;101140.63;5146846;28;20038;-80
2022/04/26 09:57:21;;;;;;;1.63;1.52;;;;;;;11.09;69.63;101140.44;5130898;28;20038;-79
2022/04/26 09:59:53;;;;;;;1.95;1.85;;;;;;;11.14;69.45;101138.56;5141611;28;20076;-79
2022/04/26 10:02:30;;;;;;;2.67;2.47;;;;;;;11.15;69.65;101150.78;5137070;28;20042;-79
2022/04/26 10:05:07;;;;;;;2.03;1.88;;;;;;;11.09;70.21;101150.94;5119534;28;20090;-79
2022/04/26 10:07:45;;;;;;;2.42;2.22;;;;;;;11.08;70.97;101155.31;5171813;28;20031;-78
2022/04/26 10:10:19;;;;;;;3.08;2.75;;;;;;;11.19;69.80;101157.72;5135884;28;20050;-80
2022/04/26 10:15:40;;;;;;;1.95;1.85;;;;;;;11.24;69.67;101162.88;5133758;28;20032;-81
2022/04/26 10:18:26;;;;;;;3.35;2.05;;;;;;;11.39;69.12;101164.25;5127152;28;20057;-80
2022/04/26 10:20:58;;;;;;;2.20;2.10;;;;;;;11.36;69.63;101169.59;5134427;28;20030;-80
2022/04/26 10:23:28;;;;;;;2.58;2.38;;;;;;;11.32;69.67;101161.78;5121033;28;20125;-80
2022/04/26 10:26:11;;;;;;;2.20;2.00;;;;;;;11.41;69.47;101173.81;5144007;28;20105;-81
2022/04/26 10:29:02;;;;;;;2.67;2.47;;;;;;;11.46;69.46;101174.59;5126644;28;20442;-81
2022/04/26 10:31:38;;;;;;;2.03;1.85;;;;;;;11.48;69.10;101171.94;5110676;28;20038;-80
2022/04/26 10:34:31;;;;;;;1.42;1.38;;;;;;;11.49;68.73;101178.91;5125993;28;20046;-80
2022/04/26 10:37:22;;;;;;;4.32;2.53;;;;;;;11.57;68.63;101176.97;5106085;28;20031;-78
2022/04/26 10:40:03;;;;;;;1.75;1.65;;;;;;;11.49;69.50;101178.91;5113548;28;20052;-78
2022/04/26 10:42:36;;;;;;;2.22;1.60;;;;;;;11.56;69.75;101183.13;5142541;28;20115;-79
2022/04/26 10:45:10;;;;;;;1.77;1.67;;;;;;;11.52;70.17;101181.47;5107129;28;20263;-78
2022/04/26 10:47:42;;;;;;;2.50;2.30;;;;;;;11.73;68.32;101185.34;5114778;28;20413;-79
2022/04/26 10:50:30;;;;;;;1.67;1.58;;;;;;;11.60;69.14;101184.78;5125314;28;20043;-80
2022/04/26 10:53:01;;;;;;;1.73;1.63;;;;;;;11.64;69.20;101175.91;5143704;28;20033;-80
2022/04/26 10:55:32;;;;;;;2.78;2.42;;;;;;;11.73;69.11;101181.84;5111851;28;20037;-80
2022/04/26 10:58:13;;;;;;;2.08;1.15;;;;;;;11.72;69.35;101181.00;5139377;28;20027;-80
2022/04/26 11:00:44;;;;;;;3.00;2.72;;;;;;;11.88;67.86;101183.25;5116886;28;20058;-80
2022/04/26 11:03:19;;;;;;;1.67;1.33;;;;;;;11.79;68.67;101182.56;5125893;28;20311;-80
2022/04/26 11:05:49;;;;;;;3.60;2.42;;;;;;;11.85;68.60;101184.19;5117453;28;20152;-80
2022/04/26 11:08:22;;;;;;;1.70;1.60;;;;;;;11.93;68.42;101187.50;5110902;28;20042;-79
2022/04/26 11:11:10;;;;;;;1.92;1.83;;;;;;;12.01;69.09;101186.47;5141326;28;20061;-80
2022/04/26 11:13:41;;;;;;;1.55;1.45;;;;;;;12.05;68.21;101182.84;5142656;28;20109;-79
2022/04/26 11:16:13;;;;;;;1.98;1.80;;;;;;;12.02;68.32;101186.41;5132862;28;20125;-80
2022/04/26 11:18:45;;;;;;;1.50;1.40;;;;;;;12.18;67.87;101191.28;5126886;28;20034;-79
2022/04/26 11:21:16;;;;;;;2.22;2.05;;;;;;;12.28;67.63;101192.75;5110944;28;20034;-79
2022/04/26 11:29:42;;;;;;;2.03;1.93;;;;;;;12.26;67.65;101190.19;5140471;28;20042;-80
2022/04/26 11:32:32;;;;;;;2.53;2.33;;;;;;;12.34;67.38;101197.84;5145958;28;20465;-80
2022/04/26 11:35:03;;;;;;;2.70;2.50;;;;;;;12.51;67.29;101205.31;5129825;28;20034;-80
2022/04/26 11:37:44;;;;;;;2.38;2.17;;;;;;;12.38;68.53;101203.88;5129596;28;20033;-80
2022/04/26 11:40:29;;;;;;;1.45;1.35;;;;;;;12.53;68.10;101198.22;5117618;28;20202;-79
2022/04/26 11:43:21;;;;;;;1.92;1.35;;;;;;;12.62;67.26;101201.50;5131426;28;20027;-79
2022/04/26 11:45:54;;;;;;;1.80;1.52;;;;;;;12.86;66.36;101206.06;5110691;28;20050;-80
2022/04/26 11:48:29;;;;;;;1.70;1.60;;;;;;;12.75;66.37;101208.16;5125263;28;20402;-79
2022/04/26 11:51:15;;;;;;;2.47;1.48;;;;;;;12.89;66.53;101202.50;5142574;28;20117;-80
2022/04/26 11:53:45;;;;;;;2.92;1.70;;;;;;;12.97;66.54;101207.53;5112732;28;20125;-81
2022/04/26 11:56:18;;;;;;;2.63;1.63;;;;;;;12.97;66.09;101208.41;5143211;28;20038;-80
2022/04/26 11:58:49;;;;;;;4.55;2.65;;;;;;;12.94;65.55;101207.59;5146459;28;20699;-81
2022/04/26 12:01:23;;;;;;;4.55;2.50;;;;;;;13.10;65.33;101208.03;5129119;28;20040;-81
2022/04/26 12:03:55;;;;;;;2.75;2.55;;;;;;;13.15;64.82;101206.09;5134457;28;20064;-80
2022/04/26 12:06:27;;;;;;;2.92;2.65;;;;;;;13.20;63.32;101210.34;5114751;28;20037;-80
2022/04/26 12:09:16;;;;;;;3.17;1.70;;;;;;;13.19;63.92;101213.88;5129680;28;20452;-80
2022/04/26 12:11:59;;;;;;;1.05;1.05;;;;;;;13.35;64.28;101213.41;5130057;28;20034;-79
2022/04/26 12:14:30;;;;;;;1.05;1.05;;;;;;;13.26;63.11;101213.72;5147274;28;20050;-79
2022/04/26 12:17:00;;;;;;;1.98;1.88;;;;;;;13.32;62.72;101210.88;5150957;28;20030;-80
2022/04/26 12:19:38;;;;;;;1.50;1.40;;;;;;;13.47;63.16;101202.53;5119979;28;20098;-79
2022/04/26 12:22:10;;;;;;;1.55;1.45;;;;;;;13.48;62.57;101200.75;5151842;28;20030;-79
2022/04/26 12:24:49;;;;;;;1.15;1.10;;;;;;;13.49;62.88;101200.72;5138707;28;20046;-79
2022/04/26 12:27:26;;;;;;;1.77;1.67;;;;;;;13.50;63.30;101197.16;5114726;28;20639;-80
2022/04/26 12:29:58;;;;;;;0.80;0.80;;;;;;;13.52;63.10;101205.00;5118210;28;20026;-80
2022/04/26 12:32:40;;;;;;;1.65;1.55;;;;;;;13.44;62.08;101202.59;5128642;28;20038;-79
2022/04/26 12:35:18;;;;;;;1.58;1.48;;;;;;;13.60;61.79;101204.75;5164374;28;20085;-80
2022/04/26 12:38:03;;;;;;;2.17;1.92;;;;;;;13.65;62.18;101192.31;5112491;28;20022;-81
2022/04/26 12:40:37;;;;;;;1.88;1.55;;;;;;;13.72;62.00;101191.19;5112831;28;20023;-80
2022/04/26 12:43:31;;;;;;;2.20;1.52;;;;;;;13.85;61.67;101195.13;5128452;28;20061;-80
2022/04/26 12:46:03;;;;;;;;;;;;;;;13.81;61.72;101190.88;5116847;28;20061;-80
2022/04/26 12:51:29;;;;;;;3.00;2.13;;;;;;;13.95;61.74;101181.63;5143784;28;20034;-81
2022/04/26 12:54:08;;;;;;;1.05;1.00;;;;;;;14.21;62.67;101182.53;5115005;28;20065;-79
2022/04/26 12:56:40;;;;;;;2.53;2.30;;;;;;;14.25;60.92;101169.16;5122776;28;20027;-79
2022/04/26 12:59:16;;;;;;;1.40;1.30;;;;;;;14.40;59.75;101177.44;5124496;28;20035;-79
2022/04/26 13:01:46;;;;;;;5.00;1.85;;;;;;;14.23;60.39;101185.97;5140471;28;20037;-79
2022/04/26 13:04:17;;;;;;;1.60;1.50;;;;;;;14.23;59.81;101184.19;5116941;28;20114;-79
2022/04/26 13:06:50;;;;;;;2.28;2.08;;;;;;;14.23;58.58;101181.56;5133286;28;20031;-79
2022/04/26 13:09:21;;;;;;;1.98;1.80;;;;;;;14.19;58.08;101184.34;5165200;28;20053;-80
2022/04/26 13:11:52;;;;;;;5.85;1.73;;;;;;;14.25;57.81;101179.72;5134620;28;20030;-80
2022/04/26 13:14:23;;;;;;;0.80;0.80;;;;;;;14.41;58.18;101169.50;5124281;28;20050;-79
2022/04/26 13:16:54;;;;;;;2.05;1.90;;;;;;;14.70;58.77;101175.50;5125729;28;20202;-80
2022/04/26 13:19:25;;;;;;;1.27;1.27;;;;;;;14.70;57.88;101170.22;5113204;28;20118;-80
2022/04/26 13:21:55;;;;;;;0.90;0.90;;;;;;;14.71;57.63;101181.66;5116511;28;20029;-80
2022/04/26 13:24:29;;;;;;;1.30;1.20;;;;;;;14.54;56.49;101179.59;5132114;28;20045;-80
2022/04/26 13:27:00;;;;;;;2.13;1.98;;;;;;;14.72;57.78;101178.09;5129144;28;20018;-80
2022/04/26 13:29:30;;;;;;;2.58;2.38;;;;;;;14.76;57.65;101190.28;5111120;28;20070;-80
2022/04/26 13:32:02;;;;;;;1.70;1.23;;;;;;;14.68;56.89;101187.91;5134176;28;20049;-80
2022/04/26 13:34:32;;;;;;;1.25;1.08;;;;;;;14.71;57.56;101190.44;5113172;28;20054;-80
2022/04/26 13:37:07;;;;;;;1.70;1.60;;;;;;;14.57;58.78;101187.41;5129291;28;20031;-80
2022/04/26 13:39:44;;;;;;;1.42;1.25;;;;;;;14.66;59.40;101195.03;5124831;28;20733;-81
2022/04/26 13:42:15;;;;;;;1.38;1.27;;;;;;;14.53;60.49;101193.72;5112047;28;20077;-80
2022/04/26 13:44:46;;;;;;;1.48;1.38;;;;;;;14.39;60.85;101191.56;5129055;28;20765;-80
2022/04/26 13:47:19;;;;;;;2.28;1.33;;;;;;;14.53;60.48;101199.00;5111715;28;20039;-81
2022/04/26 13:49:52;;;;;;;0.95;0.93;;;;;;;14.29;61.96;101201.59;5142606;28;20043;-80
2022/04/26 13:52:26;;;;;;;1.25;1.02;;;;;;;14.41;61.43;101206.47;5128065;28;20026;-81
2022/04/26 13:54:56;;;;;;;1.98;1.30;;;;;;;14.30;61.38;101203.31;5126041;28;20041;-81
2022/04/26 13:57:27;;;;;;;0.90;0.90;;;;;;;14.31;61.06;101211.19;5126397;28;20058;-81
2022/04/26 13:59:57;;;;;;;0.85;0.75;;;;;;;14.06;62.42;101205.91;5124987;28;20535;-81
2022/04/26 14:02:29;;;;;;;2.63;1.35;;;;;;;14.23;61.38;101202.66;5107250;28;20038;-81
2022/04/26 14:04:59;;;;;;;1.10;1.08;;;;;;;14.12;60.86;101200.41;5143827;28;20042;-80
2022/04/26 14:07:30;;;;;;;0.65;0.65;;;;;;;14.04;61.19;101197.16;5110897;28;20018;-80
2022/04/26 14:10:00;;;;;;;1.52;1.42;;;;;;;14.11;60.69;101203.09;5137649;28;20057;-81
2022/04/26 14:12:31;;;;;;;1.33;1.27;;;;;;;14.08;60.94;101196.16;5111188;28;20050;-81
2022/04/26 14:23:33;;;;;;;2.40;1.52;;;;;;;13.89;61.18;101200.31;5141899;28;20042;-81
2022/04/26 14:26:05;;;;;;;3.88;2.45;;;;;;;14.02;60.81;101201.63;5129789;28;20030;-81
2022/04/26 14:28:36;;;;;;;1.48;1.38;;;;;;;13.91;61.68;101195.88;5111775;28;20050;-80
2022/04/26 14:31:06;;;;;;;3.63;1.33;;;;;;;13.92;62.11;101198.44;5130648;28;20042;-81
2022/04/26 14:33:38;;;;;;;2.85;2.05;;;;;;;13.92;61.94;101208.16;5115936;28;20101;-81
2022/04/26 14:36:11;;;;;;;1.45;1.35;;;;;;;13.85;62.17;101213.59;5118340;28;20111;-81
2022/04/26 14:38:42;;;;;;;1.45;1.35;;;;;;;13.87;61.82;101212.69;5136540;28;20046;-82
2022/04/26 14:41:12;;;;;;;1.42;1.35;;;;;;;13.89;60.60;101216.16;5141104;28;20042;-81
2022/04/26 14:43:43;;;;;;;5.00;1.58;;;;;;;13.98;60.51;101210.56;5152508;28;20101;-81
2022/04/26 14:46:13;;;;;;;1.30;1.20;;;;;;;14.06;60.86;101218.22;5137558;28;20275;-81
2022/04/26 14:48:44;;;;;;;2.50;2.20;;;;;;;14.02;60.66;101214.81;5135150;28;20039;-80
2022/04/26 14:51:14;;;;;;;0.82;0.82;;;;;;;14.05;60.55;101214.72;5132459;28;20038;-81
2022/04/26 14:53:45;;;;;;;0.73;0.73;;;;;;;14.09;60.42;101216.31;5143350;28;20509;-81
2022/04/26 14:56:18;;;;;;;0.93;0.93;;;;;;;14.04;60.38;101206.88;5129063;28;20049;-81
2022/04/26 14:58:51;;;;;;;1.17;1.08;;;;;;;14.25;59.78;101206.13;5142125;28;20035;-81
2022/04/26 15:01:22;;;;;;;;;;;;;;;14.39;59.62;101207.41;5145005;28;20038;-80
2022/04/26 15:03:52;;;;;;;1.02;1.02;;;;;;;14.58;60.01;101203.19;5128817;28;20311;-81
2022/04/26 15:06:23;;;;;;;1.23;1.13;;;;;;;14.69;58.71;101204.63;5129943;28;20049;-80
2022/04/26 15:11:43;;;;;;;0.95;0.93;;;;;;;15.15;56.42;101207.31;5159911;28;20030;-81
2022/04/26 15:17:04;;;;;;;1.58;1.17;;;;;;;15.82;54.39;101211.69;5129300;28;20088;-81
2022/04/26 15:19:35;;;;;;;0.80;0.80;;;;;;;16.08;53.60;101204.47;5109862;28;20089;-81
2022/04/26 15:22:05;;;;;;;1.75;1.17;;;;;;;16.38;54.66;101211.19;5133515;28;20050;-81
2022/04/26 15:24:36;;;;;;;0.77;0.77;;;;;;;16.27;51.70;101212.50;5146932;28;20042;-80
2022/04/26 15:27:06;;;;;;;0.98;0.85;;;;;;;16.83;52.21;101223.28;5132664;28;20042;-80
2022/04/26 15:29:40;;;;;;;;;;;;;;;16.91;47.62;101218.50;5118998;28;20547;-81
2022/04/26 15:32:11;;;;;;;2.55;1.30;;;;;;;17.04;47.26;101221.47;5154125;28;19914;-81
2022/04/26 15:34:42;;;;;;;1.60;1.50;;;;;;;17.70;49.90;101227.22;5130914;28;20038;-82
2022/04/26 15:37:13;;;;;;;10.60;1.20;;;;;;;18.08;48.54;101220.06;5131013;28;20041;-81
2022/04/26 15:39:47;;;;;;;0.82;0.82;;;;;;;18.23;48.09;101221.03;5126095;28;20042;-81
2022/04/26 15:42:18;;;;;;;0.93;0.73;;;;;;;18.52;45.56;101228.44;5131699;28;20032;-81
2022/04/26 15:44:49;;;;;;;1.13;0.82;;;;;;;18.58;45.79;101227.25;5134985;28;20039;-82
2022/04/26 15:47:19;;;;;;;0.68;0.68;;;;;;;18.72;45.59;101235.34;5129700;28;20400;-81
2022/04/26 15:49:50;;;;;;;0.70;0.70;;;;;;;18.56;45.09;101236.16;5124201;28;20136;-81
2022/04/26 15:52:21;;;;;;;0.73;0.73;;;;;;;18.51;45.23;101238.22;5124926;28;20479;-82
2022/04/26 15:54:52;;;;;;;0.63;0.63;;;;;;;18.63;46.11;101233.22;5129375;28;20058;-81
2022/04/26 15:57:22;;;;;;;0.70;0.70;;;;;;;17.98;45.97;101244.47;5113796;28;20513;-81
2022/04/26 15:59:53;;;;;;;0.47;0.47;;;;;;;18.49;46.33;101244.56;5112806;28;20042;-82
2022/04/26 16:02:23;;;;;;;0.63;0.63;;;;;;;18.35;44.62;101243.44;5146389;28;20112;-82
2022/04/26 16:04:54;;;;;;;1.38;1.27;;;;;;;18.81;46.14;101247.31;5145656;28;20494;-81
2022/04/26 16:07:25;;;;;;;2.28;1.17;;;;;;;19.07;45.65;101242.41;5147538;28;20033;-83
2022/04/26 16:21:12;;;;;;;0.55;0.55;;;;;;;19.07;44.43;101250.41;5133929;28;20030;-82
2022/04/26 16:23:45;;;;;;;0.45;0.45;;;;;;;18.72;44.34;101260.16;5118047;28;20030;-81